Spiritwood, Canada
Current Conditions -  °F | °C
As of 3:31 AM on Friday 19 Dec 2014 (Local Time) from CYQW Reporting Station
Moderate Fog Moderate Fog  
Wind Chill:   Ceiling: 200
Heat Index: 16°   Visibility: 0.37mi
Dew Point: 14°   Wind: 5mph
Humidity: 93%   Direction: 320°NW
Pressure: 29.93"   Gusts: NA
Location:  53.37°N, 107.52°W
Report Text: CYQW 190931Z AUTO 32004KT 280V340 3/8SM FZFG VV002 M09/M10 A2993 RMK ICG SLP174
Loading
Personal Weather Stations






























Interactive Weather Map New forecast layout! Learn more

10-Day Weather Forecast

Advertisements
Track Severe Weather on mobile